Time;durP1;ratioP1;P1;durP2;ratioP2;P2;SDS_P1;SDS_P2;PMS_P1;PMS_P2;Temp;Humidity;BMP_temperature;BMP_pressure;BME280_temperature;BME280_humidity;BME280_pressure;Samples;Min_cycle;Max_cycle;Signal;HPM_P1;HPM_P2
2022/03/12 00:02:17;;;;;;;6.12;3.75;;;;;;;10.10;39.13;101077.24;1793337;80;21118;-64
2022/03/12 00:04:45;;;;;;;5.70;3.85;;;;;;;10.09;39.13;101068.08;1793621;80;20981;-64
2022/03/12 00:07:14;;;;;;;6.22;3.90;;;;;;;10.07;39.16;101064.22;1793303;80;21005;-64
2022/03/12 00:09:41;;;;;;;5.83;4.40;;;;;;;10.07;39.17;101060.23;1793491;79;21020;-64
2022/03/12 00:12:14;;;;;;;4.85;3.85;;;;;;;10.05;39.18;101054.22;1793547;80;21041;-65
2022/03/12 00:14:38;;;;;;;6.40;4.33;;;;;;;10.04;39.19;101057.83;1793168;79;21141;-65
2022/03/12 00:17:07;;;;;;;6.25;4.60;;;;;;;10.03;39.21;101049.53;1794507;78;20990;-64
2022/03/12 00:19:34;;;;;;;7.45;5.60;;;;;;;10.02;39.19;101043.39;1793357;80;21056;-65
2022/03/12 00:22:08;;;;;;;7.12;4.90;;;;;;;10.00;39.21;101045.30;1793491;80;20994;-65
2022/03/12 00:24:30;;;;;;;6.72;5.50;;;;;;;10.00;39.22;101041.32;1792945;79;21100;-64
2022/03/12 00:27:00;;;;;;;7.30;5.65;;;;;;;10.00;39.23;101043.14;1793728;80;21412;-65
2022/03/12 00:29:26;;;;;;;7.72;5.72;;;;;;;9.99;39.25;101037.50;1793268;80;21002;-63
2022/03/12 00:31:54;;;;;;;8.10;6.00;;;;;;;9.98;39.25;101033.14;1793620;78;21564;-65
2022/03/12 00:34:20;;;;;;;8.15;6.42;;;;;;;9.97;39.25;101033.64;1794412;78;21080;-65
2022/03/12 00:36:48;;;;;;;9.13;6.87;;;;;;;9.96;39.26;101023.98;1817459;76;21065;-64
2022/03/12 00:39:14;;;;;;;9.15;6.33;;;;;;;9.96;39.26;101025.31;1825892;78;21188;-64
2022/03/12 00:41:45;;;;;;;7.87;6.65;;;;;;;9.95;39.26;101022.81;1825807;78;20979;-65
2022/03/12 00:44:12;;;;;;;9.63;7.40;;;;;;;9.94;39.30;101021.11;1826096;78;21049;-64
2022/03/12 00:46:39;;;;;;;10.55;6.65;;;;;;;9.92;39.29;101019.91;1826203;78;21509;-63
2022/03/12 00:49:07;;;;;;;10.70;7.58;;;;;;;9.91;39.29;101016.06;1824883;78;20986;-64
2022/03/12 00:51:33;;;;;;;10.08;7.17;;;;;;;9.89;39.31;101009.58;1825739;78;21105;-65
2022/03/12 00:54:00;;;;;;;10.20;7.67;;;;;;;9.89;39.31;101018.01;1825842;78;20998;-65
2022/03/12 00:56:28;;;;;;;11.55;8.08;;;;;;;9.89;39.33;101009.58;1821979;78;21087;-64
2022/03/12 00:58:54;;;;;;;8.80;7.30;;;;;;;9.88;39.33;101010.53;1822715;78;21025;-65
2022/03/12 01:01:22;;;;;;;10.13;7.80;;;;;;;9.87;39.35;101006.22;1825850;78;21048;-64
2022/03/12 01:03:49;;;;;;;10.05;7.53;;;;;;;9.86;39.36;101007.18;1825787;78;22151;-64
2022/03/12 01:06:18;;;;;;;10.63;7.87;;;;;;;9.86;39.35;101010.33;1821485;78;21248;-65
2022/03/12 01:08:44;;;;;;;10.90;8.25;;;;;;;9.84;39.34;101005.14;1793522;80;21075;-65
2022/03/12 01:11:12;;;;;;;11.22;8.18;;;;;;;9.83;39.38;101010.09;1793265;79;20986;-64
2022/03/12 01:13:40;;;;;;;12.37;9.38;;;;;;;9.82;39.38;101012.40;1793352;79;21509;-64
2022/03/12 01:16:07;;;;;;;12.05;8.83;;;;;;;9.81;39.40;101010.70;1793362;80;21228;-64
2022/03/12 01:18:39;;;;;;;12.68;8.45;;;;;;;9.80;39.42;101012.52;1793307;79;21068;-64
2022/03/12 01:21:16;;;;;;;12.47;8.48;;;;;;;9.80;39.43;101005.06;1793314;80;21010;-64
2022/03/12 01:23:42;;;;;;;11.22;8.15;;;;;;;9.79;39.42;101002.03;1794324;78;20986;-64
2022/03/12 01:26:10;;;;;;;12.68;8.93;;;;;;;9.77;39.44;101000.00;1793351;80;21041;-64
2022/03/12 01:28:39;;;;;;;12.43;9.20;;;;;;;9.76;39.43;101000.98;1793192;79;21117;-65
2022/03/12 01:31:05;;;;;;;13.13;9.20;;;;;;;9.75;39.45;101000.13;1793213;79;20978;-64
2022/03/12 01:33:32;;;;;;;13.08;9.05;;;;;;;9.74;39.46;100998.95;1793368;79;22052;-64
2022/03/12 01:35:59;;;;;;;12.23;9.48;;;;;;;9.74;39.49;100997.63;1806311;77;21509;-65
2022/03/12 01:38:35;;;;;;;13.30;9.33;;;;;;;9.73;39.49;100998.09;1825749;78;21001;-65
2022/03/12 01:41:03;;;;;;;12.63;9.38;;;;;;;9.72;39.46;100991.12;1824829;78;21094;-64
2022/03/12 01:43:31;;;;;;;12.93;9.15;;;;;;;9.72;39.50;100998.25;1825687;78;21611;-65
2022/03/12 01:46:01;;;;;;;13.00;9.80;;;;;;;9.72;39.48;100996.92;1826014;78;21025;-64
2022/03/12 01:48:33;;;;;;;13.58;9.40;;;;;;;9.70;39.52;100989.09;1825745;78;21092;-64
2022/03/12 01:51:00;;;;;;;11.28;9.15;;;;;;;9.70;39.52;100992.23;1825778;78;21020;-64
2022/03/12 01:53:26;;;;;;;13.58;10.10;;;;;;;9.70;39.52;100992.23;1825961;78;21224;-65
2022/03/12 01:55:54;;;;;;;11.97;9.33;;;;;;;9.69;39.54;100983.91;1825835;78;20970;-64
2022/03/12 01:58:21;;;;;;;12.65;10.03;;;;;;;9.69;39.54;100994.52;1824810;78;21060;-65
2022/03/12 02:04:53;;;;;;;14.40;10.30;;;;;;;9.66;39.55;100991.66;1825471;78;21041;-64
2022/03/12 02:07:21;;;;;;;12.95;10.05;;;;;;;9.63;39.58;100987.92;1825939;78;21017;-64
2022/03/12 02:09:50;;;;;;;12.15;10.43;;;;;;;9.61;39.59;100988.05;1825973;78;21470;-64
2022/03/12 02:12:16;;;;;;;13.62;10.78;;;;;;;9.61;39.59;100988.55;1825886;78;21014;-64
2022/03/12 02:14:43;;;;;;;15.48;11.18;;;;;;;9.59;39.61;100979.38;1815660;78;21037;-64
2022/03/12 02:17:11;;;;;;;13.38;10.43;;;;;;;9.59;39.61;100979.87;1793469;79;21024;-64
2022/03/12 02:19:39;;;;;;;13.43;9.88;;;;;;;9.59;39.63;100977.22;1793843;80;21083;-64
2022/03/12 02:22:09;;;;;;;14.45;11.12;;;;;;;9.58;39.62;100972.41;1793372;79;20998;-65
2022/03/12 02:24:38;;;;;;;13.38;11.00;;;;;;;9.59;39.62;100975.90;1793536;79;21033;-64
2022/03/12 02:27:07;;;;;;;13.20;11.05;;;;;;;9.59;39.63;100978.55;1793481;80;21025;-64
2022/03/12 02:29:34;;;;;;;12.18;9.98;;;;;;;9.57;39.62;100970.72;1793407;80;20998;-64
2022/03/12 02:32:04;;;;;;;15.18;11.48;;;;;;;9.57;39.63;100971.21;1794483;78;21210;-64
2022/03/12 02:34:38;;;;;;;13.32;10.60;;;;;;;9.57;39.63;100974.70;1793312;79;21084;-64
2022/03/12 02:37:04;;;;;;;12.82;10.58;;;;;;;9.55;39.65;100966.03;1821276;77;21060;-64
2022/03/12 02:39:31;;;;;;;13.28;10.53;;;;;;;9.54;39.63;100961.72;1825828;78;21041;-64
2022/03/12 02:42:00;;;;;;;14.45;11.35;;;;;;;9.55;39.65;100961.22;1826040;78;21017;-64
2022/03/12 02:44:28;;;;;;;14.18;10.82;;;;;;;9.53;39.65;100958.69;1825889;78;21250;-64
2022/03/12 02:47:15;;;;;;;15.58;11.30;;;;;;;9.54;39.67;100952.89;1826204;78;21009;-64
2022/03/12 02:49:49;;;;;;;12.47;10.80;;;;;;;9.54;39.65;100950.23;1824923;78;21064;-64
2022/03/12 02:52:17;;;;;;;15.98;11.53;;;;;;;9.54;39.64;100942.28;1826152;78;21037;-66
2022/03/12 02:54:44;;;;;;;15.50;12.03;;;;;;;9.52;39.65;100942.44;1825932;78;20994;-64
2022/03/12 02:57:11;;;;;;;13.72;11.75;;;;;;;9.52;39.66;100942.44;1825783;78;21230;-65
2022/03/12 02:59:42;;;;;;;13.28;10.88;;;;;;;9.51;39.67;100940.74;1825926;78;21064;-64
2022/03/12 03:02:07;;;;;;;17.30;12.78;;;;;;;9.51;39.65;100935.93;1825923;78;21025;-63
2022/03/12 03:04:35;;;;;;;14.87;11.95;;;;;;;9.50;39.66;100930.26;1825834;78;21565;-63
2022/03/12 03:07:09;;;;;;;15.32;12.23;;;;;;;9.50;39.68;100929.77;1822296;78;20982;-64
2022/03/12 03:09:36;;;;;;;15.58;11.95;;;;;;;9.50;39.66;100924.95;1821508;78;21213;-65
2022/03/12 03:12:07;;;;;;;14.68;12.18;;;;;;;9.50;39.67;100918.32;1825883;78;21006;-65
2022/03/12 03:14:36;;;;;;;15.63;12.20;;;;;;;9.50;39.67;100916.99;1825930;78;21497;-65
2022/03/12 03:17:05;;;;;;;17.40;13.03;;;;;;;9.49;39.68;100919.31;1825911;78;21001;-65
2022/03/12 03:19:34;;;;;;;14.80;11.97;;;;;;;9.48;39.68;100916.29;1805923;78;21076;-64
2022/03/12 03:22:00;;;;;;;15.05;12.30;;;;;;;9.47;39.69;100913.30;1825087;78;22139;-65
2022/03/12 03:24:27;;;;;;;14.23;11.70;;;;;;;9.47;39.69;100914.63;1793477;79;21505;-65
2022/03/12 03:26:59;;;;;;;15.48;12.10;;;;;;;9.46;39.69;100911.11;1793357;80;21033;-64
2022/03/12 03:29:31;;;;;;;15.72;12.53;;;;;;;9.47;39.72;100905.34;1793341;80;21034;-64
2022/03/12 03:32:01;;;;;;;17.23;12.40;;;;;;;9.47;39.70;100901.36;1793414;80;21029;-64
2022/03/12 03:34:27;;;;;;;15.90;12.58;;;;;;;9.45;39.71;100904.14;1793456;80;21146;-64
2022/03/12 03:36:55;;;;;;;14.53;11.90;;;;;;;9.45;39.72;100906.30;1819940;78;21018;-64
2022/03/12 03:39:21;;;;;;;13.83;11.05;;;;;;;9.45;39.73;100905.47;1828312;78;21072;-65
2022/03/12 03:41:48;;;;;;;17.00;12.50;;;;;;;9.44;39.73;100899.33;1829445;78;21053;-64
2022/03/12 03:44:16;;;;;;;15.13;12.37;;;;;;;9.44;39.73;100899.79;1829255;77;21531;-65
2022/03/12 03:46:44;;;;;;;15.20;12.18;;;;;;;9.44;39.71;100897.14;1752481;78;21194;-64
2022/03/12 03:49:10;;;;;;;15.88;12.05;;;;;;;9.45;39.73;100898.84;1829189;78;21016;-66
2022/03/12 03:51:41;;;;;;;14.45;11.60;;;;;;;9.44;39.71;100896.68;1829333;77;20982;-64
2022/03/12 03:54:08;;;;;;;14.80;11.55;;;;;;;9.44;39.71;100899.79;1829193;77;20993;-65
2022/03/12 03:56:36;;;;;;;14.60;11.25;;;;;;;9.44;39.74;100897.14;1828451;78;21025;-65
2022/03/12 03:59:05;;;;;;;14.80;11.95;;;;;;;9.44;39.73;100899.79;1829334;78;21478;-65
2022/03/12 04:01:32;;;;;;;12.98;11.53;;;;;;;9.43;39.72;100895.48;1829183;78;20971;-65
2022/03/12 04:04:00;;;;;;;15.40;10.85;;;;;;;9.43;39.74;100894.15;1829351;77;20970;-65
2022/03/12 04:06:27;;;;;;;15.43;11.80;;;;;;;9.42;39.73;100884.50;1829331;78;21001;-64
2022/03/12 04:08:55;;;;;;;12.40;10.63;;;;;;;9.42;39.75;100891.13;1829428;77;21485;-64
2022/03/12 04:11:24;;;;;;;14.53;11.60;;;;;;;9.42;39.77;100883.17;1829152;78;21051;-66
2022/03/12 04:13:52;;;;;;;14.05;11.28;;;;;;;9.41;39.75;100886.81;1824589;78;21010;-64
2022/03/12 04:16:21;;;;;;;12.13;10.65;;;;;;;9.40;39.77;100881.14;1829315;77;21060;-64
2022/03/12 04:18:49;;;;;;;14.80;11.63;;;;;;;9.40;39.76;100890.42;1829340;77;21009;-64
2022/03/12 04:21:17;;;;;;;13.32;10.23;;;;;;;9.39;39.77;100886.94;1829315;78;21497;-66
2022/03/12 04:23:45;;;;;;;14.83;11.03;;;;;;;9.39;39.77;100886.11;1829325;78;21131;-65
2022/03/12 04:26:13;;;;;;;13.98;11.10;;;;;;;9.38;39.75;100887.90;1829204;78;20982;-65
2022/03/12 04:28:40;;;;;;;14.18;11.20;;;;;;;9.39;39.75;100887.44;1829308;78;21004;-64
2022/03/12 04:31:07;;;;;;;15.25;11.55;;;;;;;9.38;39.78;100881.77;1813552;78;21005;-64
2022/03/12 04:33:36;;;;;;;15.45;11.35;;;;;;;9.38;39.78;100881.77;1796701;79;21513;-65
2022/03/12 04:36:03;;;;;;;12.70;10.30;;;;;;;9.39;39.77;100886.11;1810607;78;21751;-64
2022/03/12 04:38:30;;;;;;;14.23;10.85;;;;;;;9.38;39.78;100880.44;1831310;77;21334;-65
2022/03/12 04:40:57;;;;;;;13.22;11.10;;;;;;;9.38;39.78;100883.92;1832200;78;21009;-64
2022/03/12 04:43:29;;;;;;;12.78;10.78;;;;;;;9.37;39.78;100883.58;1831953;77;21032;-65
2022/03/12 04:45:58;;;;;;;12.67;10.43;;;;;;;9.38;39.79;100888.39;1832256;78;21187;-64
2022/03/12 04:48:24;;;;;;;13.62;11.28;;;;;;;9.38;39.75;100887.06;1830923;78;21201;-65
2022/03/12 04:50:52;;;;;;;15.32;11.68;;;;;;;9.38;39.77;100890.55;1831874;77;21014;-65
2022/03/12 04:53:21;;;;;;;15.38;10.60;;;;;;;9.37;39.79;100882.26;1831908;78;21541;-64
2022/03/12 04:55:48;;;;;;;13.55;10.32;;;;;;;9.38;39.78;100885.74;1831849;78;21013;-65
2022/03/12 04:58:15;;;;;;;15.83;10.58;;;;;;;9.36;39.78;100882.38;1831915;77;21556;-64
2022/03/12 05:00:42;;;;;;;13.90;9.90;;;;;;;9.36;39.80;100883.70;1832254;78;21759;-64
2022/03/12 05:03:15;;;;;;;11.68;10.48;;;;;;;9.35;39.81;100876.25;1831882;78;21041;-64
2022/03/12 05:05:43;;;;;;;12.33;10.60;;;;;;;9.35;39.80;100881.55;1831061;78;21055;-64
2022/03/12 05:08:19;;;;;;;13.30;10.48;;;;;;;9.36;39.79;100878.41;1831911;78;21548;-63
2022/03/12 05:10:49;;;;;;;13.15;9.98;;;;;;;9.36;39.78;100877.08;1832048;77;20993;-64
2022/03/12 05:13:22;;;;;;;12.05;9.95;;;;;;;9.35;39.79;100878.90;1832109;77;21181;-64
2022/03/12 05:15:46;;;;;;;12.50;10.80;;;;;;;9.35;39.78;100883.34;1831714;77;21056;-64
2022/03/12 05:18:15;;;;;;;13.08;10.75;;;;;;;9.34;39.79;100882.51;1831744;77;21028;-64
2022/03/12 05:20:46;;;;;;;12.35;10.23;;;;;;;9.33;39.80;100879.52;1831819;78;21064;-65
2022/03/12 05:23:13;;;;;;;13.72;9.85;;;;;;;9.34;39.80;100875.05;1801194;78;21001;-64
2022/03/12 05:25:41;;;;;;;14.63;10.88;;;;;;;9.33;39.82;100873.35;1799207;79;21241;-64
2022/03/12 05:28:12;;;;;;;13.53;10.08;;;;;;;9.34;39.82;100869.74;1799194;79;21489;-65
2022/03/12 05:30:39;;;;;;;14.33;9.80;;;;;;;9.34;39.83;100858.64;1799041;79;21025;-65
2022/03/12 05:33:06;;;;;;;11.55;9.95;;;;;;;9.34;39.83;100855.98;1799124;79;21021;-64
2022/03/12 05:35:33;;;;;;;13.38;10.20;;;;;;;9.35;39.83;100867.42;1806397;78;21032;-65
2022/03/12 05:37:59;;;;;;;11.48;9.78;;;;;;;9.35;39.82;100865.64;1828133;78;21200;-64
2022/03/12 05:40:26;;;;;;;13.98;10.35;;;;;;;9.36;39.85;100864.65;1825822;78;20994;-64
2022/03/12 05:42:55;;;;;;;13.32;9.28;;;;;;;9.37;39.83;100869.00;1825542;78;21080;-64
2022/03/12 05:45:23;;;;;;;11.38;9.68;;;;;;;9.38;39.85;100864.03;1825717;78;21033;-64
2022/03/12 05:47:50;;;;;;;12.25;9.48;;;;;;;9.39;39.84;100863.56;1826055;78;21568;-65
2022/03/12 05:52:32;;;;;;;11.57;9.23;;;;;;;9.44;39.83;100864.84;1854276;77;28761;-64
2022/03/12 05:54:59;;;;;;;12.05;9.65;;;;;;;9.41;39.84;100867.75;1829989;78;21541;-64
2022/03/12 05:57:25;;;;;;;12.47;9.58;;;;;;;9.43;39.84;100864.97;1797768;79;21852;-64
2022/03/12 05:59:52;;;;;;;10.55;8.58;;;;;;;9.45;39.85;100859.05;1797799;79;20977;-65
2022/03/12 06:02:19;;;;;;;11.85;8.78;;;;;;;9.44;39.85;100855.56;1797704;79;21045;-65
2022/03/12 06:04:46;;;;;;;12.70;9.60;;;;;;;9.47;39.86;100857.59;1797674;78;21309;-65
2022/03/12 06:07:13;;;;;;;12.78;9.50;;;;;;;9.47;39.83;100853.62;1797621;79;20970;-65
2022/03/12 06:09:41;;;;;;;11.12;8.75;;;;;;;9.49;39.86;100858.30;1797630;79;20997;-64
2022/03/12 06:12:17;;;;;;;13.28;10.20;;;;;;;9.50;39.85;100854.66;1798655;78;21593;-65
2022/03/12 06:14:38;;;;;;;11.08;9.60;;;;;;;9.51;39.85;100851.88;1796584;79;21096;-64
2022/03/12 06:17:05;;;;;;;11.90;9.20;;;;;;;9.52;39.87;100856.22;1823735;78;21096;-65
2022/03/12 06:19:32;;;;;;;10.85;9.20;;;;;;;9.53;39.87;100855.23;1830287;77;21049;-64
2022/03/12 06:21:58;;;;;;;10.98;9.13;;;;;;;9.54;39.86;100851.63;1830204;78;21232;-64
2022/03/12 06:24:26;;;;;;;11.95;9.50;;;;;;;9.57;39.87;100847.84;1829777;78;21502;-63
2022/03/12 06:26:52;;;;;;;9.93;8.23;;;;;;;9.57;39.88;100847.35;1830541;78;21045;-65
2022/03/12 06:29:19;;;;;;;11.40;9.03;;;;;;;9.59;39.87;100849.38;1825560;78;21041;-64
2022/03/12 06:31:46;;;;;;;12.30;9.43;;;;;;;9.60;39.89;100847.09;1797625;79;21010;-64
2022/03/12 06:34:12;;;;;;;10.43;8.75;;;;;;;9.61;39.89;100844.78;1797619;79;21111;-64
2022/03/12 06:36:40;;;;;;;10.80;8.95;;;;;;;9.63;39.86;100843.33;1797926;79;21529;-64
2022/03/12 06:39:07;;;;;;;11.57;9.15;;;;;;;9.64;39.88;100838.39;1797660;79;21006;-64
2022/03/12 06:41:36;;;;;;;10.40;7.78;;;;;;;9.65;39.90;100839.55;1797583;79;21009;-64
2022/03/12 06:44:03;;;;;;;11.45;8.48;;;;;;;9.68;39.88;100833.16;1797555;79;21628;-65
2022/03/12 06:46:32;;;;;;;11.08;8.55;;;;;;;9.70;39.89;100841.82;1798549;78;21247;-64
2022/03/12 06:48:59;;;;;;;9.88;8.78;;;;;;;9.71;39.90;100841.33;1797515;79;21053;-64
2022/03/12 06:51:26;;;;;;;12.03;8.80;;;;;;;9.74;39.89;100842.39;1792904;79;21009;-64
2022/03/12 06:53:56;;;;;;;13.25;9.30;;;;;;;9.75;39.88;100836.09;1786645;80;21533;-64
2022/03/12 06:56:21;;;;;;;11.33;8.78;;;;;;;9.77;39.87;100843.43;1786318;80;21089;-64
2022/03/12 06:58:47;;;;;;;12.28;8.78;;;;;;;9.78;39.86;100835.84;1786674;80;21981;-64
2022/03/12 07:01:13;;;;;;;10.53;8.80;;;;;;;9.80;39.86;100833.38;1786760;80;21510;-65
2022/03/12 07:03:42;;;;;;;11.83;8.93;;;;;;;9.82;39.84;100833.25;1787194;79;21062;-64
2022/03/12 07:06:09;;;;;;;10.13;8.43;;;;;;;9.84;39.87;100833.95;1786094;80;21033;-66
2022/03/12 07:08:36;;;;;;;9.78;8.08;;;;;;;9.85;39.84;100823.70;1786248;80;21096;-64
2022/03/12 07:11:05;;;;;;;10.82;8.43;;;;;;;9.87;39.86;100824.41;1786289;80;21080;-64
2022/03/12 07:13:32;;;;;;;9.70;8.70;;;;;;;9.89;39.85;100825.57;1786006;79;21019;-64
2022/03/12 07:16:00;;;;;;;10.55;8.50;;;;;;;9.90;39.85;100820.13;1797438;79;21034;-64
2022/03/12 07:18:27;;;;;;;12.05;9.05;;;;;;;9.93;39.83;100819.87;1818401;79;21530;-64
2022/03/12 07:20:54;;;;;;;10.82;8.18;;;;;;;9.95;39.82;100815.76;1805571;79;21565;-64
2022/03/12 07:23:22;;;;;;;12.98;8.85;;;;;;;9.96;39.81;100810.78;1786067;80;21042;-64
2022/03/12 07:25:49;;;;;;;11.20;8.30;;;;;;;9.97;39.82;100812.48;1786039;80;21048;-65
2022/03/12 07:28:18;;;;;;;11.65;9.10;;;;;;;9.98;39.82;100804.34;1792934;79;21057;-64
2022/03/12 07:30:44;;;;;;;10.68;8.05;;;;;;;10.00;39.79;100801.06;1814671;78;21113;-64
2022/03/12 07:33:10;;;;;;;9.20;8.15;;;;;;;10.02;39.78;100797.81;1818365;79;21034;-64
2022/03/12 07:35:37;;;;;;;10.00;8.50;;;;;;;10.04;39.79;100796.32;1818421;79;21287;-65
2022/03/12 07:38:04;;;;;;;12.25;8.75;;;;;;;10.06;39.78;100789.05;1803802;79;21054;-64
2022/03/12 07:40:31;;;;;;;10.58;8.68;;;;;;;10.08;39.76;100784.94;1786056;80;21057;-65
2022/03/12 07:42:57;;;;;;;11.03;8.93;;;;;;;10.09;39.77;100780.83;1786153;80;21054;-64
2022/03/12 07:45:25;;;;;;;9.55;8.28;;;;;;;10.12;39.76;100778.36;1786120;80;21089;-64
2022/03/12 07:47:52;;;;;;;9.70;7.83;;;;;;;10.14;39.78;100780.39;1786030;80;21217;-66
2022/03/12 07:50:19;;;;;;;11.18;8.53;;;;;;;10.15;39.78;100776.27;1785832;80;21089;-65
2022/03/12 07:52:46;;;;;;;11.25;8.40;;;;;;;10.17;39.76;100776.97;1786038;80;21569;-65
2022/03/12 07:55:13;;;;;;;10.85;8.60;;;;;;;10.20;39.76;100775.87;1787108;79;21544;-64
2022/03/12 07:57:41;;;;;;;13.03;8.48;;;;;;;10.22;39.76;100774.75;1786017;80;21093;-65
2022/03/12 08:00:10;;;;;;;8.78;7.50;;;;;;;10.24;39.74;100775.44;1786020;79;21208;-65
2022/03/12 08:02:47;;;;;;;10.65;8.03;;;;;;;10.26;39.74;100773.98;1786496;80;21690;-65
2022/03/12 08:05:16;;;;;;;10.50;8.08;;;;;;;10.29;39.75;100768.37;1785962;80;21566;-64
2022/03/12 08:07:42;;;;;;;10.13;7.95;;;;;;;10.32;39.74;100769.45;1786754;80;21038;-65
2022/03/12 08:10:09;;;;;;;10.40;8.10;;;;;;;10.34;39.75;100762.69;1786068;80;21124;-64
2022/03/12 08:12:38;;;;;;;9.25;8.03;;;;;;;10.37;39.74;100753.94;1786974;79;20987;-65
2022/03/12 08:15:11;;;;;;;11.65;8.15;;;;;;;10.40;39.76;100752.31;1785921;80;21094;-65
2022/03/12 08:17:39;;;;;;;10.32;8.05;;;;;;;10.43;39.76;100745.40;1786097;80;21026;-64
2022/03/12 08:20:06;;;;;;;10.08;7.85;;;;;;;10.46;39.76;100743.44;1786195;80;21596;-64
2022/03/12 08:22:38;;;;;;;11.08;8.35;;;;;;;10.50;39.75;100747.48;1785926;80;21092;-64
2022/03/12 08:25:07;;;;;;;9.48;7.08;;;;;;;10.51;39.78;100742.03;1785285;80;21247;-66
2022/03/12 08:27:35;;;;;;;10.32;7.70;;;;;;;10.55;39.78;100739.93;1786169;80;21081;-65
2022/03/12 08:30:04;;;;;;;11.40;7.87;;;;;;;10.59;39.78;100736.00;1787039;79;21038;-65
2022/03/12 08:32:35;;;;;;;10.08;7.53;;;;;;;10.60;39.83;100737.66;1785925;80;21057;-65
2022/03/12 08:35:05;;;;;;;10.30;7.90;;;;;;;10.63;39.83;100737.38;1807649;78;21003;-66
2022/03/12 08:37:33;;;;;;;8.90;7.15;;;;;;;10.67;39.86;100732.63;1818571;78;21224;-65
2022/03/12 08:40:04;;;;;;;9.78;7.45;;;;;;;10.70;39.86;100731.84;1818366;77;21569;-63
2022/03/12 08:42:30;;;;;;;9.78;7.70;;;;;;;10.72;39.77;100728.55;1818162;79;21662;-65
2022/03/12 08:44:58;;;;;;;9.65;8.20;;;;;;;10.76;39.75;100731.77;1817567;79;21101;-65
2022/03/12 08:47:25;;;;;;;9.60;8.10;;;;;;;10.80;39.71;100726.50;1786143;79;21030;-65
2022/03/12 08:49:51;;;;;;;11.05;7.72;;;;;;;10.83;39.70;100727.52;1786230;80;21882;-64
2022/03/12 08:52:20;;;;;;;10.35;7.95;;;;;;;10.87;39.74;100728.89;1785770;80;21041;-65
2022/03/12 08:54:46;;;;;;;10.00;7.45;;;;;;;10.91;39.71;100726.28;1785978;80;21089;-64
2022/03/12 08:57:13;;;;;;;9.40;7.58;;;;;;;10.95;39.78;100726.37;1786261;79;21050;-67
2022/03/12 08:59:39;;;;;;;9.20;6.95;;;;;;;10.99;39.81;100725.09;1786102;80;21003;-64
2022/03/12 09:02:06;;;;;;;8.93;7.53;;;;;;;11.04;39.83;100723.80;1787015;79;21241;-64
2022/03/12 09:04:34;;;;;;;9.45;7.20;;;;;;;11.07;39.87;100722.16;1785954;80;21042;-65
2022/03/12 09:07:01;;;;;;;10.78;8.18;;;;;;;11.12;39.89;100723.90;1786067;79;21045;-64
2022/03/12 09:09:28;;;;;;;9.80;7.05;;;;;;;11.15;39.89;100717.80;1785892;80;21046;-64
2022/03/12 09:11:56;;;;;;;10.20;7.37;;;;;;;11.19;39.86;100711.19;1786115;80;21206;-65
2022/03/12 09:14:23;;;;;;;9.25;7.00;;;;;;;11.24;39.88;100705.41;1785997;80;21233;-64
2022/03/12 09:16:50;;;;;;;9.43;7.65;;;;;;;11.30;39.90;100710.63;1808330;79;21056;-65
2022/03/12 09:19:18;;;;;;;8.50;7.25;;;;;;;11.34;39.84;100706.22;1813379;79;21077;-65
2022/03/12 09:21:46;;;;;;;8.20;7.00;;;;;;;11.41;39.80;100705.11;1786334;80;21029;-65
2022/03/12 09:24:13;;;;;;;9.05;7.25;;;;;;;11.46;39.81;100694.86;1785897;80;21561;-64
2022/03/12 09:26:40;;;;;;;9.75;7.65;;;;;;;11.51;39.82;100701.91;1785960;80;21279;-64
2022/03/12 09:29:06;;;;;;;8.45;7.40;;;;;;;11.59;39.92;100694.50;1785922;80;21089;-64
2022/03/12 09:31:33;;;;;;;10.35;6.97;;;;;;;11.66;39.99;100688.89;1785914;80;21049;-64
2022/03/12 09:34:02;;;;;;;8.10;6.85;;;;;;;11.73;40.06;100687.81;1786287;80;21018;-65
2022/03/12 09:36:30;;;;;;;8.95;6.92;;;;;;;11.80;40.02;100690.18;1787188;79;21065;-65
2022/03/12 09:38:56;;;;;;;8.80;6.67;;;;;;;11.87;39.96;100687.26;1790947;79;21198;-64
2022/03/12 09:41:23;;;;;;;9.40;7.00;;;;;;;11.95;40.00;100684.69;1815118;79;20991;-65
2022/03/12 09:43:51;;;;;;;8.15;6.78;;;;;;;12.03;40.21;100676.42;1811713;78;20996;-65
2022/03/12 09:46:18;;;;;;;9.25;7.33;;;;;;;12.10;40.27;100662.84;1811558;79;20980;-65
2022/03/12 09:48:45;;;;;;;8.45;6.87;;;;;;;12.17;40.34;100666.56;1811660;79;21066;-65
2022/03/12 09:51:14;;;;;;;7.87;6.45;;;;;;;12.24;40.47;100664.92;1811630;79;21238;-65
2022/03/12 09:53:41;;;;;;;7.45;6.35;;;;;;;12.32;40.61;100671.66;1804288;78;21028;-64
2022/03/12 09:56:08;;;;;;;7.37;6.35;;;;;;;12.39;40.60;100663.36;1789344;80;20990;-65
2022/03/12 09:58:34;;;;;;;7.83;6.10;;;;;;;12.49;40.58;100662.42;1789322;80;21000;-64
2022/03/12 10:01:01;;;;;;;7.22;6.25;;;;;;;12.57;40.50;100665.12;1789358;80;20982;-64
2022/03/12 10:03:28;;;;;;;8.15;6.55;;;;;;;12.63;40.48;100661.81;1789268;80;21204;-64
2022/03/12 10:05:55;;;;;;;7.28;6.12;;;;;;;12.70;40.37;100652.20;1789256;80;21063;-64
2022/03/12 10:08:22;;;;;;;6.53;5.90;;;;;;;12.78;40.29;100647.39;1789322;80;21005;-65
2022/03/12 10:10:49;;;;;;;6.72;5.72;;;;;;;12.86;40.19;100646.59;1790311;78;20992;-65
2022/03/12 10:13:16;;;;;;;7.62;6.25;;;;;;;12.94;40.17;100645.28;1789252;80;21004;-65
2022/03/12 10:15:43;;;;;;;7.37;6.42;;;;;;;13.02;40.22;100645.33;1797056;78;21969;-64
2022/03/12 10:18:12;;;;;;;6.62;5.90;;;;;;;13.09;40.26;100639.66;1821589;78;21011;-67
2022/03/12 10:20:39;;;;;;;7.05;6.20;;;;;;;13.17;40.16;100637.04;1821767;78;21002;-65
2022/03/12 10:23:07;;;;;;;6.78;5.67;;;;;;;13.26;40.08;100633.87;1821631;78;20994;-65
2022/03/12 10:25:38;;;;;;;7.25;5.85;;;;;;;13.34;40.04;100623.75;1822088;78;21057;-64
2022/03/12 10:28:05;;;;;;;7.45;6.15;;;;;;;13.42;39.88;100618.41;1806822;78;21223;-65
2022/03/12 10:30:31;;;;;;;7.25;5.55;;;;;;;13.50;39.88;100619.78;1789523;80;20982;-65
2022/03/12 10:32:58;;;;;;;6.72;5.70;;;;;;;13.59;39.75;100622.45;1789375;80;21052;-65
2022/03/12 10:35:25;;;;;;;6.85;5.60;;;;;;;13.68;39.67;100616.11;1789313;80;21020;-65
2022/03/12 10:37:53;;;;;;;6.90;5.90;;;;;;;13.75;39.58;100610.41;1789486;80;20973;-65
2022/03/12 10:40:24;;;;;;;7.15;5.70;;;;;;;13.84;39.51;100598.73;1789396;80;21239;-66
2022/03/12 10:43:01;;;;;;;6.53;5.30;;;;;;;13.92;39.40;100599.22;1789468;80;21012;-64
2022/03/12 10:45:31;;;;;;;6.78;5.28;;;;;;;14.00;39.30;100594.38;1807670;78;21506;-66
2022/03/12 10:48:02;;;;;;;7.00;5.17;;;;;;;14.08;39.21;100595.69;1779185;79;21020;-65
2022/03/12 10:50:35;;;;;;;6.33;5.53;;;;;;;14.14;39.15;100595.85;1810160;79;21122;-65
2022/03/12 10:53:05;;;;;;;6.65;6.03;;;;;;;14.20;39.08;100585.47;1809783;79;21125;-66
2022/03/12 10:55:34;;;;;;;5.87;5.12;;;;;;;14.24;38.99;100580.97;1809799;79;21559;-66
2022/03/12 10:58:12;;;;;;;7.58;5.72;;;;;;;14.29;38.93;100577.28;1809455;79;21086;-66
2022/03/12 11:00:54;;;;;;;6.12;5.53;;;;;;;14.34;38.87;100564.73;1810006;79;21032;-65
2022/03/12 11:03:29;;;;;;;6.10;5.50;;;;;;;14.36;38.84;100564.88;1821413;78;20982;-64
2022/03/12 11:05:56;;;;;;;6.17;4.85;;;;;;;14.43;38.79;100571.72;1821865;78;21148;-64
2022/03/12 11:08:28;;;;;;;6.10;5.12;;;;;;;14.47;38.76;100565.02;1821780;78;21010;-65
2022/03/12 11:11:12;;;;;;;5.62;5.08;;;;;;;14.50;38.70;100557.14;1821815;78;21009;-64
2022/03/12 11:13:44;;;;;;;5.62;5.03;;;;;;;14.55;38.68;100559.63;1821805;78;20993;-65
2022/03/12 11:16:23;;;;;;;5.58;4.72;;;;;;;14.61;38.67;100554.63;1822029;78;21244;-65
2022/03/12 11:18:57;;;;;;;6.78;5.45;;;;;;;14.64;38.67;100552.45;1810101;78;21132;-66
2022/03/12 11:21:41;;;;;;;6.05;5.08;;;;;;;14.68;38.56;100555.09;1789275;78;21021;-66
2022/03/12 11:24:17;;;;;;;6.47;5.72;;;;;;;14.71;38.51;100556.06;1789594;80;21797;-64
2022/03/12 11:26:59;;;;;;;6.22;5.30;;;;;;;14.73;38.49;100558.05;1789682;80;21016;-64
2022/03/12 11:29:28;;;;;;;6.45;4.97;;;;;;;14.76;38.43;100554.22;1789357;80;21055;-65
2022/03/12 11:32:06;;;;;;;5.30;4.80;;;;;;;14.78;38.43;100553.53;1789873;80;21265;-65
2022/03/12 11:34:38;;;;;;;4.85;4.35;;;;;;;14.80;38.37;100553.37;1789318;80;20993;-65